Time;durP1;ratioP1;P1;durP2;ratioP2;P2;SDS_P1;SDS_P2;PMS_P1;PMS_P2;Temp;Humidity;BMP_temperature;BMP_pressure;BME280_temperature;BME280_humidity;BME280_pressure;Samples;Min_cycle;Max_cycle;Signal;HPM_P1;HPM_P2
2021/11/13 00:01:44;;;;;;;9.50;1.20;;;30.40;23.90;;;;;;5075086;28;20080;-64
2021/11/13 00:04:11;;;;;;;6.10;1.30;;;30.40;24.70;;;;;;5038792;28;20076;-63
2021/11/13 00:06:37;;;;;;;10.05;1.23;;;30.30;24.70;;;;;;5062686;28;20202;-63
2021/11/13 00:09:05;;;;;;;7.88;1.35;;;30.20;24.10;;;;;;5074440;28;20084;-61
2021/11/13 00:11:32;;;;;;;10.27;1.35;;;30.10;24.50;;;;;;5072299;28;20089;-62
2021/11/13 00:14:02;;;;;;;7.68;1.40;;;30.10;24.80;;;;;;5094046;28;20144;-62
2021/11/13 00:16:32;;;;;;;4.93;1.20;;;30.00;24.60;;;;;;5092033;28;20557;-65
2021/11/13 00:18:59;;;;;;;12.90;1.95;;;29.90;24.70;;;;;;5054219;28;20134;-62
2021/11/13 00:21:27;;;;;;;16.10;1.90;;;29.80;24.60;;;;;;5059936;28;20095;-60
2021/11/13 00:23:54;;;;;;;15.15;1.85;;;29.80;24.80;;;;;;5062952;28;20139;-63
2021/11/13 00:26:22;;;;;;;14.65;1.73;;;29.70;25.10;;;;;;5058005;28;20179;-63
2021/11/13 00:28:48;;;;;;;9.32;2.20;;;29.60;25.00;;;;;;5064639;28;20672;-62
2021/11/13 00:31:15;;;;;;;19.67;2.22;;;29.50;25.70;;;;;;5085277;28;20106;-64
2021/11/13 00:33:41;;;;;;;30.55;3.63;;;29.40;25.00;;;;;;5092220;28;20130;-62
2021/11/13 00:36:07;;;;;;;18.05;3.55;;;29.30;26.00;;;;;;5057559;28;20097;-62
2021/11/13 00:38:34;;;;;;;12.75;2.95;;;29.20;26.70;;;;;;5054389;28;20446;-64
2021/11/13 00:41:00;;;;;;;12.40;3.25;;;29.10;26.40;;;;;;5056250;28;20077;-62
2021/11/13 00:43:27;;;;;;;20.17;3.42;;;28.90;26.90;;;;;;5057364;28;20523;-64
2021/11/13 00:45:54;;;;;;;19.20;3.42;;;28.80;27.20;;;;;;5073694;28;20449;-64
2021/11/13 00:48:20;;;;;;;20.08;3.58;;;28.70;27.80;;;;;;5050135;28;20511;-64
2021/11/13 00:50:46;;;;;;;17.33;3.13;;;28.60;27.90;;;;;;5074671;28;20629;-63
2021/11/13 00:53:14;;;;;;;16.15;3.45;;;28.40;28.50;;;;;;5091943;28;20069;-61
2021/11/13 00:55:40;;;;;;;19.95;3.97;;;28.30;28.60;;;;;;5073822;28;20155;-62
2021/11/13 00:58:06;;;;;;;21.80;4.15;;;28.20;28.80;;;;;;5073202;28;20114;-64
2021/11/13 01:00:33;;;;;;;25.98;4.40;;;28.10;28.90;;;;;;5059853;28;20109;-63
2021/11/13 01:02:59;;;;;;;18.17;4.55;;;28.00;29.10;;;;;;5067105;28;20116;-60
2021/11/13 01:05:27;;;;;;;19.00;5.25;;;27.90;29.00;;;;;;5052475;28;20161;-60
2021/11/13 01:07:53;;;;;;;16.30;6.78;;;27.80;29.30;;;;;;5054180;28;20176;-61
2021/11/13 01:10:21;;;;;;;24.15;8.32;;;27.70;29.60;;;;;;5071000;28;20079;-62
2021/11/13 01:12:48;;;;;;;28.08;9.77;;;27.60;29.20;;;;;;5069694;28;20069;-62
2021/11/13 01:15:17;;;;;;;33.25;11.48;;;27.60;29.50;;;;;;5070376;28;20073;-59
2021/11/13 01:17:43;;;;;;;36.60;10.25;;;27.50;29.90;;;;;;5070046;28;20077;-60
2021/11/13 01:20:13;;;;;;;35.92;10.52;;;27.40;30.00;;;;;;5070274;28;20073;-59
2021/11/13 01:22:40;;;;;;;34.97;10.63;;;27.30;30.60;;;;;;5069251;28;20084;-58
2021/11/13 01:25:08;;;;;;;33.33;9.93;;;27.20;30.80;;;;;;5050374;28;20065;-62
2021/11/13 01:27:34;;;;;;;44.15;13.27;;;27.10;31.20;;;;;;5050616;28;20086;-61
2021/11/13 01:30:03;;;;;;;38.83;12.75;;;27.00;31.60;;;;;;5049597;28;20447;-62
2021/11/13 01:32:29;;;;;;;36.22;12.55;;;26.90;31.20;;;;;;5055698;28;20092;-58
2021/11/13 01:34:55;;;;;;;41.45;11.00;;;26.80;30.80;;;;;;5069239;28;20447;-61
2021/11/13 01:37:22;;;;;;;39.40;12.85;;;26.70;31.20;;;;;;5052150;28;20081;-64
2021/11/13 01:39:48;;;;;;;38.00;10.77;;;26.60;32.60;;;;;;5068982;28;20104;-57
2021/11/13 01:42:15;;;;;;;41.78;11.15;;;26.50;33.10;;;;;;5068408;28;20077;-62
2021/11/13 01:44:41;;;;;;;40.03;8.85;;;26.40;33.10;;;;;;5070571;28;20481;-58
2021/11/13 01:47:08;;;;;;;30.20;8.63;;;26.30;33.10;;;;;;5069244;28;20547;-61
2021/11/13 01:49:36;;;;;;;34.38;7.82;;;26.60;33.50;;;;;;5068934;28;20131;-59
2021/11/13 01:52:10;;;;;;;41.08;8.00;;;26.10;33.90;;;;;;5070973;28;20152;-59
2021/11/13 01:54:40;;;;;;;45.67;8.40;;;25.90;34.30;;;;;;5056373;28;20068;-56
2021/11/13 01:57:11;;;;;;;59.28;8.70;;;25.80;34.40;;;;;;5063352;28;20581;-61
2021/11/13 01:59:39;;;;;;;58.05;8.25;;;25.70;35.30;;;;;;5061529;28;20562;-57
2021/11/13 02:02:06;;;;;;;40.13;7.22;;;25.70;35.30;;;;;;5087384;28;20080;-59
2021/11/13 02:04:33;;;;;;;64.45;8.23;;;25.60;35.60;;;;;;5072180;28;20844;-60
2021/11/13 02:07:00;;;;;;;41.70;7.38;;;25.50;36.40;;;;;;5078853;28;20100;-63
2021/11/13 02:09:27;;;;;;;51.40;7.40;;;25.40;36.00;;;;;;5036274;28;20174;-63
2021/11/13 02:11:54;;;;;;;44.88;7.85;;;25.30;36.20;;;;;;5072179;28;20454;-59
2021/11/13 02:14:21;;;;;;;56.47;9.00;;;25.20;36.40;;;;;;5055925;28;20072;-63
2021/11/13 02:16:47;;;;;;;50.80;9.10;;;25.10;36.20;;;;;;5072195;28;20082;-63
2021/11/13 02:19:14;;;;;;;46.85;10.15;;;25.10;36.80;;;;;;5072184;28;20130;-62
2021/11/13 02:21:41;;;;;;;55.90;10.30;;;25.00;36.70;;;;;;5072695;28;20083;-61
2021/11/13 02:24:07;;;;;;;64.35;11.38;;;25.00;36.30;;;;;;5060740;28;20081;-63
2021/11/13 02:26:34;;;;;;;53.72;11.65;;;24.90;36.60;;;;;;5070106;28;20127;-59
2021/11/13 02:29:03;;;;;;;63.92;11.82;;;24.80;36.30;;;;;;5037915;28;20077;-61
2021/11/13 02:31:36;;;;;;;73.30;12.60;;;24.70;36.60;;;;;;5071972;28;20092;-58
2021/11/13 02:34:05;;;;;;;74.22;12.52;;;24.70;36.60;;;;;;5036144;28;20076;-58
2021/11/13 02:36:32;;;;;;;72.43;12.27;;;24.60;37.10;;;;;;5057935;28;20107;-61
2021/11/13 02:39:00;;;;;;;72.80;12.77;;;24.60;37.70;;;;;;5055005;28;20084;-56
2021/11/13 02:41:28;;;;;;;81.18;15.25;;;24.50;36.80;;;;;;5090058;28;20108;-62
2021/11/13 02:43:57;;;;;;;79.07;14.80;;;24.50;36.80;;;;;;5041614;28;20073;-58
2021/11/13 02:46:25;;;;;;;87.60;15.27;;;24.40;36.80;;;;;;5071440;28;20175;-60
2021/11/13 02:48:52;;;;;;;83.20;17.42;;;24.50;37.60;;;;;;5090090;28;20091;-57
2021/11/13 02:51:19;;;;;;;76.88;17.50;;;24.50;37.90;;;;;;5072223;28;20654;-61
2021/11/13 02:53:52;;;;;;;97.03;21.58;;;24.50;38.00;;;;;;5071580;28;20092;-60
2021/11/13 02:56:20;;;;;;;91.20;20.15;;;24.50;37.70;;;;;;5071479;28;20111;-61
2021/11/13 02:58:47;;;;;;;100.80;21.38;;;24.40;36.90;;;;;;5074813;28;20218;-58
2021/11/13 03:01:21;;;;;;;90.68;24.27;;;24.40;37.50;;;;;;5068499;28;20105;-63
2021/11/13 03:03:52;;;;;;;105.30;23.10;;;24.30;37.40;;;;;;5068314;28;20853;-63
2021/11/13 03:06:19;;;;;;;101.32;22.88;;;24.30;37.20;;;;;;5068299;28;20093;-62
2021/11/13 03:08:53;;;;;;;94.63;23.95;;;24.20;37.50;;;;;;5068053;28;20117;-59
2021/11/13 03:11:21;;;;;;;106.18;22.58;;;24.20;37.50;;;;;;5068006;28;20608;-59
2021/11/13 03:13:52;;;;;;;102.38;24.35;;;24.20;37.70;;;;;;5068231;28;20100;-60
2021/11/13 03:16:19;;;;;;;94.28;23.23;;;24.10;38.30;;;;;;5033956;28;20079;-59
2021/11/13 03:18:47;;;;;;;97.68;21.75;;;24.10;37.70;;;;;;5056805;28;20799;-61
2021/11/13 03:21:14;;;;;;;94.47;20.90;;;24.00;37.70;;;;;;5048835;28;20439;-59
2021/11/13 03:23:43;;;;;;;103.40;21.98;;;23.90;38.30;;;;;;5052859;28;20154;-62
2021/11/13 03:26:20;;;;;;;91.28;20.42;;;23.80;40.00;;;;;;5040881;28;20131;-60
2021/11/13 03:28:48;;;;;;;;;;;23.80;39.00;;;;;;5049926;28;20466;-58
2021/11/13 03:31:15;;;;;;;114.57;21.23;;;23.80;38.70;;;;;;5068428;28;20057;-60
2021/11/13 03:33:42;;;;;;;93.07;20.60;;;23.70;38.90;;;;;;5056516;28;20113;-59
2021/11/13 03:36:10;;;;;;;105.63;21.48;;;23.70;38.50;;;;;;5068881;28;20081;-58
2021/11/13 03:38:39;;;;;;;103.47;22.08;;;23.70;38.70;;;;;;5069517;28;20112;-63
2021/11/13 03:41:06;;;;;;;103.35;23.05;;;23.70;39.80;;;;;;5067769;28;20161;-61
2021/11/13 03:43:34;;;;;;;120.05;23.95;;;23.70;39.50;;;;;;5066899;28;20076;-61
2021/11/13 03:46:01;;;;;;;119.15;23.02;;;23.60;39.40;;;;;;5067764;28;20089;-63
2021/11/13 03:48:27;;;;;;;98.13;22.38;;;23.50;39.50;;;;;;5068185;28;20072;-61
2021/11/13 03:50:54;;;;;;;104.22;19.52;;;23.40;39.90;;;;;;5063987;28;20656;-62
2021/11/13 03:53:20;;;;;;;92.00;20.15;;;23.40;40.30;;;;;;5067252;28;20069;-63
2021/11/13 03:55:47;;;;;;;115.35;21.45;;;23.40;39.70;;;;;;5069149;28;20073;-63
2021/11/13 03:58:13;;;;;;;139.02;24.58;;;23.30;39.50;;;;;;5067540;28;20076;-58
2021/11/13 04:00:40;;;;;;;156.55;24.30;;;23.40;40.60;;;;;;5081305;28;20101;-60
2021/11/13 04:03:07;;;;;;;120.20;22.70;;;23.30;39.50;;;;;;5071264;28;20073;-60
2021/11/13 04:05:33;;;;;;;91.57;21.65;;;23.30;39.70;;;;;;5091726;28;20069;-60
2021/11/13 04:08:00;;;;;;;104.57;20.67;;;23.20;39.30;;;;;;5074601;28;20077;-62
2021/11/13 04:10:26;;;;;;;98.35;21.42;;;23.20;39.30;;;;;;5074518;28;20461;-60
2021/11/13 04:12:52;;;;;;;93.60;20.15;;;23.10;40.20;;;;;;5092644;28;20095;-58
2021/11/13 04:15:19;;;;;;;99.45;20.45;;;23.10;40.90;;;;;;5074635;28;20072;-60
2021/11/13 04:17:48;;;;;;;107.07;20.05;;;23.00;40.30;;;;;;5070165;28;20522;-59
2021/11/13 04:20:15;;;;;;;118.53;22.00;;;23.00;41.00;;;;;;5070947;28;20534;-60
2021/11/13 04:22:41;;;;;;;108.45;21.60;;;22.90;41.40;;;;;;5073956;28;20076;-61
2021/11/13 04:25:09;;;;;;;100.35;22.27;;;22.90;42.00;;;;;;5043625;28;21564;-59
2021/11/13 04:27:36;;;;;;;127.38;23.52;;;22.90;41.90;;;;;;5072394;28;20141;-65
2021/11/13 04:30:05;;;;;;;118.78;23.70;;;22.80;41.60;;;;;;5073205;28;20077;-60
2021/11/13 04:32:34;;;;;;;97.63;23.00;;;22.80;41.60;;;;;;5057799;28;20079;-63
2021/11/13 04:37:28;;;;;;;100.82;21.48;;;22.70;41.80;;;;;;5092309;28;20098;-61
2021/11/13 04:39:55;;;;;;;93.13;20.60;;;22.60;42.20;;;;;;5054924;28;20076;-61
2021/11/13 04:42:22;;;;;;;78.07;20.05;;;22.60;42.80;;;;;;5038197;28;20074;-63
2021/11/13 04:44:49;;;;;;;96.07;18.67;;;22.60;43.30;;;;;;5073989;28;20076;-61
2021/11/13 04:47:17;;;;;;;90.18;18.38;;;22.50;43.00;;;;;;5073617;28;20079;-65
2021/11/13 04:49:44;;;;;;;88.57;18.00;;;22.50;43.30;;;;;;5062885;28;20108;-61
2021/11/13 04:52:10;;;;;;;103.25;17.50;;;22.40;43.30;;;;;;5073278;28;20063;-59
2021/11/13 04:54:37;;;;;;;84.90;16.55;;;22.40;43.60;;;;;;5092388;28;20064;-64
2021/11/13 04:57:04;;;;;;;82.63;16.20;;;22.40;43.30;;;;;;5057490;28;20087;-61
2021/11/13 04:59:31;;;;;;;84.55;16.25;;;22.40;43.70;;;;;;5073224;28;20111;-59
2021/11/13 05:01:59;;;;;;;84.90;16.65;;;22.30;43.50;;;;;;5092137;28;20526;-61
2021/11/13 05:04:26;;;;;;;93.18;17.23;;;22.30;44.30;;;;;;5073388;28;20076;-61
2021/11/13 05:06:52;;;;;;;115.47;19.70;;;22.20;44.40;;;;;;5056593;28;20225;-61
2021/11/13 05:09:19;;;;;;;108.90;18.88;;;22.30;44.00;;;;;;5073344;28;20077;-62
2021/11/13 05:11:45;;;;;;;91.10;17.98;;;22.20;44.40;;;;;;5073907;28;20094;-61
2021/11/13 05:14:11;;;;;;;83.18;19.52;;;22.10;44.70;;;;;;5040251;28;20540;-61
2021/11/13 05:16:38;;;;;;;97.03;18.00;;;22.10;44.60;;;;;;5072208;28;20575;-58
2021/11/13 05:19:08;;;;;;;105.65;17.85;;;22.00;45.30;;;;;;5061657;28;20122;-59
2021/11/13 05:21:35;;;;;;;91.15;17.48;;;22.00;45.00;;;;;;5067760;28;20092;-59
2021/11/13 05:24:02;;;;;;;87.72;18.58;;;21.90;45.30;;;;;;5041011;28;20076;-58
2021/11/13 05:26:28;;;;;;;93.60;19.55;;;22.00;45.30;;;;;;5061576;28;20115;-61
2021/11/13 05:28:55;;;;;;;91.45;18.95;;;21.90;45.40;;;;;;5071842;28;20087;-60
2021/11/13 05:31:21;;;;;;;80.05;19.33;;;21.90;45.80;;;;;;5040034;28;20080;-59
2021/11/13 05:33:48;;;;;;;96.75;21.80;;;21.80;45.20;;;;;;5072568;28;20064;-61
2021/11/13 05:36:14;;;;;;;84.63;20.27;;;21.80;45.90;;;;;;5056820;28;20070;-60
2021/11/13 05:38:40;;;;;;;101.55;21.70;;;21.80;45.50;;;;;;5072814;28;20601;-63
2021/11/13 05:41:07;;;;;;;107.72;20.05;;;21.70;45.90;;;;;;5090871;28;20462;-60
2021/11/13 05:43:33;;;;;;;77.65;19.73;;;21.70;45.70;;;;;;5072874;28;20069;-62
2021/11/13 05:46:00;;;;;;;95.15;21.08;;;21.70;45.60;;;;;;5056199;28;20073;-60
2021/11/13 05:48:26;;;;;;;82.68;20.25;;;21.70;45.80;;;;;;5079938;28;20089;-60
2021/11/13 05:50:53;;;;;;;110.78;21.48;;;21.70;46.60;;;;;;5054005;28;20436;-60
2021/11/13 05:53:19;;;;;;;80.53;21.15;;;21.70;46.60;;;;;;5073077;28;20519;-65
2021/11/13 05:55:46;;;;;;;107.90;21.45;;;21.20;46.10;;;;;;5036860;28;20446;-61
2021/11/13 05:58:14;;;;;;;;;;;21.60;46.60;;;;;;5091234;28;20525;-59
2021/11/13 06:00:41;;;;;;;150.70;40.95;;;21.60;46.60;;;;;;5053045;28;20037;-60
2021/11/13 06:03:08;;;;;;;158.50;44.83;;;21.50;47.10;;;;;;5070835;28;20104;-62
2021/11/13 06:05:34;;;;;;;200.18;59.45;;;21.60;45.40;;;;;;5072112;28;20449;-60
2021/11/13 06:08:00;;;;;;;210.70;59.75;;;21.50;45.40;;;;;;5072507;28;20105;-64
2021/11/13 06:10:27;;;;;;;181.90;50.15;;;21.50;46.20;;;;;;5072159;28;20077;-60
2021/11/13 06:12:53;;;;;;;160.20;42.92;;;21.50;46.20;;;;;;5072048;28;20108;-62
2021/11/13 06:15:20;;;;;;;131.20;34.60;;;21.40;45.20;;;;;;5072213;28;20073;-62
2021/11/13 06:17:46;;;;;;;124.70;33.42;;;21.40;44.40;;;;;;5055124;28;20126;-60
2021/11/13 06:20:13;;;;;;;125.07;34.45;;;21.40;44.60;;;;;;5072220;28;20079;-61
2021/11/13 06:22:40;;;;;;;116.60;32.97;;;21.40;44.60;;;;;;5071247;28;20450;-61
2021/11/13 06:25:08;;;;;;;130.93;32.28;;;21.40;44.40;;;;;;5071161;28;20103;-63
2021/11/13 06:27:36;;;;;;;127.10;34.05;;;21.40;44.70;;;;;;5089971;28;20087;-61
2021/11/13 06:30:05;;;;;;;114.93;31.95;;;21.40;44.60;;;;;;5066600;28;20150;-61
2021/11/13 06:32:31;;;;;;;130.10;33.58;;;21.40;44.90;;;;;;5071267;28;20073;-58
2021/11/13 06:34:59;;;;;;;120.80;33.97;;;21.40;45.50;;;;;;5072006;28;20084;-60
2021/11/13 06:37:26;;;;;;;148.05;36.58;;;21.30;45.00;;;;;;5071988;28;20073;-59
2021/11/13 06:39:53;;;;;;;133.60;34.22;;;21.30;44.50;;;;;;5071598;28;20077;-59
2021/11/13 06:42:19;;;;;;;131.98;34.58;;;21.20;44.80;;;;;;5055031;28;20534;-58
2021/11/13 06:44:45;;;;;;;137.02;34.80;;;21.20;44.90;;;;;;5071559;28;20100;-59
2021/11/13 06:47:12;;;;;;;117.47;31.65;;;21.20;45.50;;;;;;5062295;28;20120;-59
2021/11/13 06:49:38;;;;;;;127.00;32.72;;;21.10;44.80;;;;;;5089189;28;20088;-60
2021/11/13 06:52:05;;;;;;;105.78;31.88;;;21.10;44.40;;;;;;5089939;28;20068;-61
2021/11/13 06:54:31;;;;;;;111.07;32.05;;;21.00;44.70;;;;;;5055271;28;20130;-63
2021/11/13 06:56:59;;;;;;;122.05;31.20;;;21.00;44.80;;;;;;5071376;28;20489;-64
2021/11/13 06:59:25;;;;;;;97.45;28.88;;;21.00;44.60;;;;;;5071103;28;20128;-59
2021/11/13 07:01:52;;;;;;;109.32;27.88;;;20.90;45.10;;;;;;5045668;28;20102;-61
2021/11/13 07:04:18;;;;;;;101.97;27.30;;;21.00;45.00;;;;;;5071422;28;20176;-64
2021/11/13 07:06:45;;;;;;;111.80;26.35;;;21.00;45.20;;;;;;5071288;28;20431;-59
2021/11/13 07:09:11;;;;;;;96.68;27.52;;;20.90;44.90;;;;;;5071304;28;20118;-58
2021/11/13 07:11:37;;;;;;;;;;;20.90;44.90;;;;;;5071503;28;20074;-59
2021/11/13 07:14:03;;;;;;;108.88;27.25;;;20.90;44.80;;;;;;5071206;28;20063;-60
2021/11/13 07:16:30;;;;;;;118.35;29.63;;;20.90;45.00;;;;;;5054651;28;20073;-61
2021/11/13 07:18:56;;;;;;;106.20;30.08;;;20.90;45.70;;;;;;5071488;28;20073;-64
2021/11/13 07:21:23;;;;;;;105.07;29.92;;;20.80;45.10;;;;;;5071403;28;20108;-61
2021/11/13 07:23:50;;;;;;;91.20;27.60;;;20.80;45.10;;;;;;5079274;28;20126;-62
2021/11/13 07:26:17;;;;;;;96.78;26.17;;;20.80;45.30;;;;;;5051864;28;20167;-61
2021/11/13 07:28:47;;;;;;;93.35;26.08;;;20.70;45.50;;;;;;5059810;28;20126;-63
2021/11/13 07:31:16;;;;;;;88.30;25.23;;;20.70;45.80;;;;;;5046262;28;20088;-61
2021/11/13 07:33:45;;;;;;;95.90;23.80;;;20.60;45.50;;;;;;5060976;28;20568;-61
2021/11/13 07:36:11;;;;;;;67.28;21.60;;;20.60;44.60;;;;;;5035328;28;20073;-61
2021/11/13 07:38:39;;;;;;;89.57;21.50;;;20.60;44.60;;;;;;5061413;28;20485;-60
2021/11/13 07:41:07;;;;;;;81.53;21.70;;;20.60;45.00;;;;;;5082449;28;20100;-59
2021/11/13 07:43:34;;;;;;;73.72;21.15;;;20.60;45.10;;;;;;5064240;28;20091;-63
2021/11/13 07:46:00;;;;;;;75.82;22.38;;;20.50;45.80;;;;;;5045045;28;20069;-62
2021/11/13 07:48:26;;;;;;;79.60;25.27;;;20.50;45.20;;;;;;5064579;28;20138;-64
2021/11/13 07:50:53;;;;;;;84.50;29.17;;;20.40;45.40;;;;;;5049822;28;20096;-58
2021/11/13 07:53:20;;;;;;;86.75;36.55;;;20.50;45.70;;;;;;5048024;28;20081;-58
2021/11/13 07:55:46;;;;;;;105.40;45.60;;;20.50;44.80;;;;;;5064598;28;20157;-60
2021/11/13 07:58:16;;;;;;;110.78;43.88;;;20.40;45.20;;;;;;5083607;28;20080;-59
2021/11/13 08:00:47;;;;;;;83.88;35.35;;;20.40;44.30;;;;;;5045614;28;20109;-63
2021/11/13 08:03:13;;;;;;;79.05;34.78;;;20.40;44.20;;;;;;5038468;28;20217;-58
2021/11/13 08:05:40;;;;;;;83.18;37.47;;;20.40;45.20;;;;;;5064488;28;20360;-62
2021/11/13 08:08:07;;;;;;;74.25;34.00;;;20.40;45.60;;;;;;5063110;28;20192;-60
2021/11/13 08:10:41;;;;;;;65.68;28.92;;;20.40;44.80;;;;;;5049355;28;20205;-58
2021/11/13 08:13:19;;;;;;;60.72;27.42;;;20.40;44.40;;;;;;5041326;28;20072;-59
2021/11/13 08:15:47;;;;;;;56.88;21.45;;;20.30;44.50;;;;;;5064288;28;20203;-60
2021/11/13 08:18:14;;;;;;;52.38;17.40;;;20.30;43.70;;;;;;5063884;28;20073;-60
2021/11/13 08:20:40;;;;;;;36.15;13.10;;;20.30;44.20;;;;;;5064440;28;20084;-59
2021/11/13 08:23:10;;;;;;;34.60;13.43;;;20.30;44.30;;;;;;5063674;28;20088;-59
2021/11/13 08:25:41;;;;;;;37.08;13.05;;;20.30;43.70;;;;;;5081998;28;20216;-62
2021/11/13 08:28:09;;;;;;;40.67;13.25;;;20.30;43.90;;;;;;5063497;28;20091;-63
2021/11/13 08:30:36;;;;;;;33.58;10.65;;;20.20;44.00;;;;;;5063879;28;20431;-57
2021/11/13 08:33:06;;;;;;;30.13;9.60;;;20.30;44.10;;;;;;5064026;28;20076;-65
2021/11/13 08:35:38;;;;;;;23.80;9.57;;;20.30;43.40;;;;;;5048666;28;20073;-61
2021/11/13 08:38:05;;;;;;;14.20;4.38;;;20.20;43.00;;;;;;5064045;28;20193;-59
2021/11/13 08:40:32;;;;;;;15.40;3.53;;;20.20;41.40;;;;;;5053845;28;20422;-65
2021/11/13 08:42:59;;;;;;;8.80;2.08;;;20.30;40.70;;;;;;5062899;28;20110;-66
2021/11/13 08:45:26;;;;;;;8.35;1.75;;;20.30;39.90;;;;;;5063340;28;20075;-63
2021/11/13 08:47:52;;;;;;;12.18;2.25;;;20.30;39.50;;;;;;5064400;28;20089;-60
2021/11/13 08:50:25;;;;;;;15.85;2.28;;;20.30;39.50;;;;;;5046049;28;20126;-62
2021/11/13 08:52:55;;;;;;;16.95;2.47;;;20.40;39.50;;;;;;5063284;28;20134;-59
2021/11/13 08:55:22;;;;;;;9.50;2.03;;;20.30;39.00;;;;;;5048697;28;20068;-63
2021/11/13 08:57:50;;;;;;;10.77;1.98;;;20.30;39.30;;;;;;5046814;28;20085;-61
2021/11/13 09:00:22;;;;;;;11.68;1.70;;;20.40;39.10;;;;;;5061335;28;20109;-61
2021/11/13 09:02:49;;;;;;;11.32;1.80;;;20.40;39.10;;;;;;5064242;28;20538;-61
2021/11/13 09:05:16;;;;;;;8.13;1.83;;;20.40;38.90;;;;;;5062450;28;20085;-61
2021/11/13 09:07:43;;;;;;;8.38;2.03;;;20.40;39.00;;;;;;5063461;28;20089;-63
2021/11/13 09:10:10;;;;;;;8.90;2.20;;;20.40;39.00;;;;;;5045993;28;20084;-63
2021/11/13 09:12:37;;;;;;;6.88;2.00;;;20.50;37.90;;;;;;5046817;28;20561;-60
2021/11/13 09:15:10;;;;;;;10.15;2.00;;;20.60;36.90;;;;;;5047582;28;20077;-64
2021/11/13 09:17:36;;;;;;;10.35;2.75;;;20.60;36.60;;;;;;5063387;28;20073;-62
2021/11/13 09:20:04;;;;;;;8.55;2.72;;;20.70;36.50;;;;;;5054977;28;20079;-64
2021/11/13 09:22:30;;;;;;;17.33;2.42;;;20.80;36.30;;;;;;5062108;28;20077;-62
2021/11/13 09:24:57;;;;;;;7.43;2.05;;;20.90;36.20;;;;;;5062304;28;20051;-62
2021/11/13 09:27:23;;;;;;;10.45;1.90;;;20.90;35.50;;;;;;5046594;28;20095;-58
2021/11/13 09:29:50;;;;;;;11.48;1.80;;;20.90;36.40;;;;;;5082243;28;20071;-60
2021/11/13 09:32:16;;;;;;;9.93;2.03;;;21.00;36.40;;;;;;5064186;28;20049;-60
2021/11/13 09:34:43;;;;;;;14.65;3.58;;;20.90;37.10;;;;;;5080396;28;20091;-59
2021/11/13 09:37:09;;;;;;;14.60;4.55;;;20.80;37.40;;;;;;5082085;28;20071;-57
2021/11/13 09:39:35;;;;;;;13.90;4.70;;;20.80;37.60;;;;;;5044728;28;20108;-58
2021/11/13 09:42:04;;;;;;;18.10;4.80;;;20.80;37.60;;;;;;5046504;28;20054;-62
2021/11/13 09:44:30;;;;;;;13.63;5.00;;;20.70;38.50;;;;;;5063301;28;20160;-63
2021/11/13 09:46:59;;;;;;;12.50;5.40;;;20.60;38.40;;;;;;5063316;28;20082;-59
2021/11/13 09:49:30;;;;;;;12.10;4.60;;;20.50;39.00;;;;;;5062719;28;20080;-58
2021/11/13 09:51:58;;;;;;;11.15;5.22;;;20.50;39.20;;;;;;5063246;28;20073;-59
2021/11/13 09:54:25;;;;;;;16.08;5.45;;;20.40;38.90;;;;;;5062511;28;21352;-63
2021/11/13 09:56:52;;;;;;;13.40;4.03;;;20.30;39.50;;;;;;5048591;28;20191;-60
2021/11/13 09:59:19;;;;;;;9.63;4.07;;;20.30;39.90;;;;;;5063499;28;20159;-60
2021/11/13 10:01:45;;;;;;;14.60;2.88;;;20.20;39.80;;;;;;5061948;28;20534;-58
2021/11/13 10:04:11;;;;;;;11.98;2.17;;;20.20;39.80;;;;;;5051315;28;20127;-60
2021/11/13 10:06:38;;;;;;;11.50;2.05;;;20.20;39.40;;;;;;5081420;28;20150;-59
2021/11/13 10:09:04;;;;;;;14.10;2.13;;;20.50;57.10;;;;;;5045613;28;20083;-59
2021/11/13 10:11:31;;;;;;;11.20;1.70;;;20.10;38.90;;;;;;5063734;28;20125;-63
2021/11/13 10:14:00;;;;;;;7.32;1.83;;;20.10;39.10;;;;;;5046736;28;20182;-60
2021/11/13 10:16:39;;;;;;;12.70;1.75;;;20.20;39.10;;;;;;5044950;28;20168;-59
2021/11/13 10:19:16;;;;;;;10.05;1.67;;;20.00;63.50;;;;;;5063200;28;20060;-59
2021/11/13 10:21:46;;;;;;;10.35;1.92;;;19.70;62.00;;;;;;5062283;28;20074;-59
2021/11/13 10:24:24;;;;;;;4.28;1.63;;;20.10;54.00;;;;;;5060851;28;20072;-59
2021/11/13 10:26:54;;;;;;;8.27;1.83;;;19.60;57.00;;;;;;5045950;28;20024;-58
2021/11/13 10:29:26;;;;;;;12.07;1.65;;;19.70;63.10;;;;;;5066787;28;20063;-63
2021/11/13 10:31:56;;;;;;;9.00;1.73;;;20.00;39.30;;;;;;5063656;28;20066;-58
2021/11/13 10:34:32;;;;;;;13.05;1.50;;;20.10;70.30;;;;;;5066262;28;20042;-60
2021/11/13 10:37:06;;;;;;;9.57;1.40;;;19.90;39.90;;;;;;5050155;28;20075;-61
2021/11/13 10:39:36;;;;;;;11.93;1.83;;;19.90;40.10;;;;;;5063007;28;20643;-58
2021/11/13 10:42:11;;;;;;;12.30;1.85;;;19.80;40.20;;;;;;5079533;28;20164;-62
2021/11/13 10:44:51;;;;;;;10.80;1.95;;;19.80;40.10;;;;;;5078511;28;20111;-62
2021/11/13 10:47:20;;;;;;;13.20;2.22;;;19.80;40.30;;;;;;5080621;28;20584;-59
2021/11/13 10:49:48;;;;;;;8.23;1.70;;;19.80;39.60;;;;;;5084684;28;20578;-58
2021/11/13 10:52:17;;;;;;;6.05;1.63;;;19.80;39.20;;;;;;5065994;28;20466;-62
2021/11/13 10:54:48;;;;;;;8.68;1.63;;;19.70;39.60;;;;;;5061713;28;20071;-58
2021/11/13 10:57:27;;;;;;;8.60;2.08;;;19.70;40.80;;;;;;5044740;28;20089;-60
2021/11/13 10:59:54;;;;;;;8.38;1.88;;;19.80;40.60;;;;;;5062278;28;20217;-58
2021/11/13 11:02:23;;;;;;;6.68;1.45;;;19.50;68.80;;;;;;5060954;28;20073;-60
2021/11/13 11:04:50;;;;;;;8.38;1.58;;;19.60;40.80;;;;;;5044623;28;20075;-59
2021/11/13 11:07:24;;;;;;;13.18;2.50;;;19.40;54.40;;;;;;5062485;28;20202;-58
2021/11/13 11:09:58;;;;;;;7.30;1.88;;;19.70;41.80;;;;;;5048535;28;20047;-61
2021/11/13 11:12:29;;;;;;;11.77;2.08;;;19.60;46.20;;;;;;5061557;28;20073;-58
2021/11/13 11:14:56;;;;;;;10.43;2.33;;;19.40;48.20;;;;;;5046688;28;20071;-65
2021/11/13 11:17:30;;;;;;;12.60;2.28;;;19.20;62.00;;;;;;5049571;28;20044;-58
2021/11/13 11:20:16;;;;;;;7.57;1.98;;;19.50;41.10;;;;;;5066752;28;20050;-60
2021/11/13 11:22:44;;;;;;;13.27;2.05;;;19.20;47.00;;;;;;5065211;28;20083;-63
2021/11/13 11:25:13;;;;;;;17.38;2.10;;;19.20;46.40;;;;;;5054518;28;20053;-58
2021/11/13 11:27:46;;;;;;;14.88;2.72;;;19.30;43.90;;;;;;5066449;28;20592;-58
2021/11/13 11:30:15;;;;;;;13.60;2.47;;;19.30;80.60;;;;;;5064192;28;20154;-60
2021/11/13 11:32:58;;;;;;;18.30;2.03;;;19.40;47.90;;;;;;5047994;28;20042;-62
2021/11/13 11:35:40;;;;;;;9.85;2.08;;;19.10;78.80;;;;;;5036601;28;20101;-63
2021/11/13 11:38:12;;;;;;;12.75;2.30;;;19.30;60.20;;;;;;5083534;28;20063;-60
2021/11/13 11:40:45;;;;;;;17.35;2.33;;;18.90;67.70;;;;;;5065687;28;20524;-57
2021/11/13 11:43:13;;;;;;;17.00;2.40;;;19.20;41.40;;;;;;5055971;28;20496;-58
2021/11/13 11:45:42;;;;;;;9.77;2.03;;;19.30;52.60;;;;;;5048189;28;20142;-60
2021/11/13 11:48:13;;;;;;;15.75;3.10;;;19.20;42.90;;;;;;5048608;28;20112;-60
2021/11/13 11:50:40;;;;;;;9.35;2.65;;;19.10;42.80;;;;;;5048337;28;20127;-59
2021/11/13 11:53:11;;;;;;;10.55;2.38;;;19.10;43.70;;;;;;5065653;28;20073;-64
2021/11/13 11:55:43;;;;;;;11.20;2.33;;;19.10;42.90;;;;;;5065193;28;20105;-63
2021/11/13 11:58:17;;;;;;;19.38;2.95;;;19.20;66.60;;;;;;5037590;28;20527;-57
2021/11/13 12:00:44;;;;;;;11.40;2.35;;;19.00;42.90;;;;;;5082622;28;20050;-61
2021/11/13 12:03:22;;;;;;;8.70;2.40;;;19.00;43.40;;;;;;5064357;28;20068;-60
2021/11/13 12:05:55;;;;;;;12.32;2.63;;;19.00;43.70;;;;;;5063183;28;20418;-59
2021/11/13 12:08:26;;;;;;;15.77;2.63;;;18.90;43.60;;;;;;5070674;28;20550;-58
2021/11/13 12:11:13;;;;;;;15.48;3.00;;;18.80;81.70;;;;;;5083130;28;20042;-58
2021/11/13 12:13:39;;;;;;;;;;;18.80;44.30;;;;;;5063999;28;20077;-58
2021/11/13 12:16:06;;;;;;;14.18;2.85;;;;;;;;;;5064085;28;19961;-60
2021/11/13 12:18:35;;;;;;;15.93;3.30;;;19.10;75.50;;;;;;5064734;28;20479;-59
2021/11/13 12:21:04;;;;;;;15.95;2.65;;;18.70;45.10;;;;;;5065130;28;20082;-58
2021/11/13 12:23:34;;;;;;;9.18;2.88;;;18.80;61.50;;;;;;5063844;28;20028;-59
2021/11/13 12:26:05;;;;;;;10.60;2.50;;;18.60;44.70;;;;;;5049320;28;20476;-62
2021/11/13 12:28:34;;;;;;;19.48;2.80;;;18.60;55.40;;;;;;5064608;28;20184;-63
2021/11/13 12:31:06;;;;;;;14.52;2.95;;;18.60;52.40;;;;;;5063858;28;20129;-63
2021/11/13 12:33:33;;;;;;;12.38;2.33;;;18.60;58.80;;;;;;5063033;28;20054;-57
2021/11/13 12:36:02;;;;;;;;;;;18.50;53.90;;;;;;5065431;28;20315;-57
2021/11/13 12:38:34;;;;;;;13.13;2.70;;;18.50;51.80;;;;;;5065340;28;19952;-59
2021/11/13 12:41:08;;;;;;;13.27;2.67;;;18.60;66.80;;;;;;5063147;28;20029;-60